createdAt,value
2023-01-19T00:01:07.153Z,96462.63
2023-01-19T00:06:08.479Z,96474.97
2023-01-19T00:11:09.771Z,96476.25
2023-01-19T00:16:11.492Z,96479.69
2023-01-19T00:21:14.811Z,96482.78
2023-01-19T00:26:16.377Z,96484.38
2023-01-19T00:31:20.700Z,96483.06
2023-01-19T00:36:22.205Z,96470.28
2023-01-19T00:41:43.407Z,96475.84
2023-01-19T00:46:44.684Z,96471.72
2023-01-19T00:51:45.937Z,96476.97
2023-01-19T00:56:47.158Z,96474.91
2023-01-19T01:01:48.515Z,96471.00
2023-01-19T01:06:49.809Z,96484.84
2023-01-19T01:11:51.071Z,96490.41
2023-01-19T01:16:52.360Z,96491.97
2023-01-19T01:21:53.671Z,96498.50
2023-01-19T01:26:54.882Z,96511.06
2023-01-19T01:31:56.191Z,96513.97
2023-01-19T01:36:57.495Z,96530.66
2023-01-19T01:41:58.795Z,96531.41
2023-01-19T01:47:00.583Z,96548.16
2023-01-19T01:52:01.820Z,96540.81
2023-01-19T01:57:03.048Z,96534.81
2023-01-19T02:02:23.149Z,96547.66
2023-01-19T02:07:43.401Z,96541.78
2023-01-19T02:13:03.588Z,96534.34
2023-01-19T02:18:04.951Z,96545.69
2023-01-19T02:23:06.166Z,96546.03
2023-01-19T02:28:07.377Z,96542.13
2023-01-19T02:33:08.657Z,96538.03
2023-01-19T02:38:09.938Z,96533.41
2023-01-19T02:43:11.200Z,96540.53
2023-01-19T02:48:12.447Z,96550.53
2023-01-19T02:53:13.669Z,96551.34
2023-01-19T02:58:14.901Z,96555.59
2023-01-19T03:03:16.192Z,96554.47
2023-01-19T03:08:17.640Z,96543.22
2023-01-19T03:13:18.891Z,96548.09
2023-01-19T03:18:20.160Z,96545.44
2023-01-19T03:23:21.443Z,96541.84
2023-01-19T03:28:22.803Z,96541.88
2023-01-19T03:33:26.073Z,96542.50
2023-01-19T03:38:27.339Z,96541.13
2023-01-19T03:43:28.550Z,96539.75
2023-01-19T03:48:29.892Z,96540.91
2023-01-19T03:53:31.142Z,96538.94
2023-01-19T03:58:32.453Z,96541.03
2023-01-19T04:03:33.692Z,96534.56
2023-01-19T04:08:34.920Z,96532.31
2023-01-19T04:13:36.188Z,96536.19
2023-01-19T04:18:37.436Z,96541.00
2023-01-19T04:23:38.812Z,96546.72
2023-01-19T04:28:40.101Z,96553.97
2023-01-19T04:33:41.428Z,96553.22
2023-01-19T04:38:42.928Z,96553.28
2023-01-19T04:43:44.219Z,96549.28
2023-01-19T04:48:45.448Z,96547.13
2023-01-19T04:53:46.670Z,96547.19
2023-01-19T04:58:47.928Z,96544.97
2023-01-19T05:03:49.136Z,96558.31
2023-01-19T05:08:50.909Z,96555.41
2023-01-19T05:13:52.299Z,96562.53
2023-01-19T05:18:53.568Z,96574.31
2023-01-19T05:23:54.906Z,96581.31
2023-01-19T05:28:56.566Z,96586.13
2023-01-19T05:33:57.811Z,96589.50
2023-01-19T05:38:59.061Z,96595.50
2023-01-19T05:44:00.547Z,96609.44
2023-01-19T05:49:04.187Z,96609.19
2023-01-19T05:54:05.438Z,96614.28
2023-01-19T05:59:06.647Z,96627.66
2023-01-19T06:04:07.878Z,96628.19
2023-01-19T06:09:09.106Z,96632.19
2023-01-19T06:14:10.546Z,96633.56
2023-01-19T06:19:11.773Z,96642.97
2023-01-19T06:24:14.534Z,96629.56
2023-01-19T06:29:16.044Z,96649.06
2023-01-19T06:34:17.393Z,96653.09
2023-01-19T06:39:18.710Z,96658.97
2023-01-19T06:44:19.941Z,96663.25
2023-01-19T06:49:21.139Z,96675.25
2023-01-19T06:54:22.433Z,96680.97
2023-01-19T06:59:24.984Z,96683.78
2023-01-19T07:04:27.026Z,96698.28
2023-01-19T07:09:28.300Z,96704.41
2023-01-19T07:14:33.539Z,96716.31
2023-01-19T07:19:38.048Z,96716.88
2023-01-19T07:24:39.261Z,96717.63
2023-01-19T07:29:40.513Z,96731.06
2023-01-19T07:34:41.891Z,96741.09
2023-01-19T07:39:43.206Z,96746.03
2023-01-19T07:44:44.506Z,96747.19
2023-01-19T07:49:45.768Z,96757.16
2023-01-19T07:54:50.834Z,96757.69
2023-01-19T07:59:52.142Z,96761.97
2023-01-19T08:04:53.763Z,96761.00
2023-01-19T08:09:55.039Z,96756.75
2023-01-19T08:14:56.328Z,96757.56
2023-01-19T08:19:57.597Z,96767.56
2023-01-19T08:24:58.857Z,96756.97
2023-01-19T08:30:00.140Z,96767.03
2023-01-19T08:35:01.445Z,96773.09
2023-01-19T08:40:02.733Z,96777.22
2023-01-19T08:45:03.987Z,96785.72
2023-01-19T08:50:05.341Z,96783.59
2023-01-19T08:55:06.671Z,96782.72
2023-01-19T09:00:07.943Z,96783.44
2023-01-19T09:05:09.201Z,96788.28
2023-01-19T09:10:12.997Z,96800.56
2023-01-19T09:15:14.328Z,96805.72
2023-01-19T09:20:15.602Z,96799.16
2023-01-19T09:25:16.810Z,96795.78
2023-01-19T09:30:19.109Z,96797.44
2023-01-19T09:35:21.583Z,96802.59
2023-01-19T09:40:22.798Z,96805.31
2023-01-19T09:45:24.036Z,96808.94
2023-01-19T09:50:25.276Z,96805.59
2023-01-19T09:55:26.580Z,96814.63
2023-01-19T10:00:28.036Z,96802.03
2023-01-19T10:05:29.302Z,96805.19
2023-01-19T10:10:30.687Z,96803.00
2023-01-19T10:15:31.930Z,96793.13
2023-01-19T10:20:33.411Z,96783.72
2023-01-19T10:25:34.765Z,96772.09
2023-01-19T10:30:36.114Z,96771.91
2023-01-19T10:35:37.373Z,96760.38
2023-01-19T10:40:38.588Z,96764.66
2023-01-19T10:45:39.921Z,96754.41
2023-01-19T10:50:41.356Z,96747.59
2023-01-19T10:55:43.117Z,96752.97
2023-01-19T11:00:44.494Z,96741.09
2023-01-19T11:05:46.562Z,96731.94
2023-01-19T11:10:49.296Z,96730.25
2023-01-19T11:15:50.609Z,96733.06
2023-01-19T11:20:51.863Z,96724.09
2023-01-19T11:25:53.154Z,96715.38
2023-01-19T11:30:54.453Z,96698.16
2023-01-19T11:35:55.749Z,96683.75
2023-01-19T11:40:57.097Z,96678.63
2023-01-19T11:45:58.774Z,96672.75
2023-01-19T11:51:00.138Z,96664.56
2023-01-19T11:56:02.870Z,96650.34
2023-01-19T12:01:04.149Z,96648.34
2023-01-19T12:06:05.408Z,96627.69
2023-01-19T12:11:06.646Z,96631.66
2023-01-19T12:16:08.390Z,96622.56
2023-01-19T12:21:09.659Z,96601.56
2023-01-19T12:26:10.928Z,96598.44
2023-01-19T12:31:12.289Z,96582.03
2023-01-19T12:36:14.203Z,96570.31
2023-01-19T12:41:15.675Z,96566.56
2023-01-19T12:46:16.969Z,96559.31
2023-01-19T12:51:18.419Z,96558.22
2023-01-19T12:56:20.325Z,96562.66
2023-01-19T13:01:21.956Z,96581.06
2023-01-19T13:06:23.259Z,96567.75
2023-01-19T13:11:27.284Z,96552.16
2023-01-19T13:16:29.869Z,96546.56
2023-01-19T13:21:31.140Z,96539.44
2023-01-19T13:26:32.342Z,96532.94
2023-01-19T13:31:33.615Z,96547.63
2023-01-19T13:36:34.914Z,96548.97
2023-01-19T13:41:36.269Z,96557.44
2023-01-19T13:46:38.538Z,96560.91
2023-01-19T13:51:39.902Z,96563.81
2023-01-19T13:56:43.463Z,96572.94
2023-01-19T14:01:44.917Z,96581.78
2023-01-19T14:06:48.844Z,96599.47
2023-01-19T14:11:50.975Z,96598.38
2023-01-19T14:16:52.211Z,96612.06
2023-01-19T14:21:53.455Z,96616.59
2023-01-19T14:26:56.287Z,96620.19
2023-01-19T14:31:57.977Z,96629.50
2023-01-19T14:36:59.223Z,96633.16
2023-01-19T14:42:00.535Z,96634.28
2023-01-19T14:47:01.795Z,96654.16
2023-01-19T14:52:03.203Z,96651.50
2023-01-19T14:57:04.453Z,96658.03
2023-01-19T15:02:05.892Z,96662.69
2023-01-19T15:07:07.242Z,96673.88
2023-01-19T15:12:08.496Z,96677.63
2023-01-19T15:17:09.822Z,96682.94
2023-01-19T15:22:11.279Z,96671.59
2023-01-19T15:27:12.563Z,96663.81
2023-01-19T15:32:14.116Z,96660.84
2023-01-19T15:37:15.386Z,96658.94
2023-01-19T15:42:16.654Z,96671.09
2023-01-19T15:47:17.901Z,96669.84
2023-01-19T15:52:19.246Z,96658.28
2023-01-19T15:57:20.458Z,96657.88
2023-01-19T16:02:21.788Z,96654.56
2023-01-19T16:07:23.117Z,96655.31
2023-01-19T16:12:24.456Z,96662.13
2023-01-19T16:17:25.719Z,96661.06
2023-01-19T16:22:26.955Z,96664.78
2023-01-19T16:27:28.186Z,96666.91
2023-01-19T16:32:29.447Z,96675.44
2023-01-19T16:37:30.722Z,96671.41
2023-01-19T16:42:32.038Z,96674.00
2023-01-19T16:47:33.302Z,96682.13
2023-01-19T16:52:34.543Z,96676.94
2023-01-19T16:57:36.206Z,96685.00
2023-01-19T17:02:37.562Z,96691.16
2023-01-19T17:07:38.896Z,96702.66
2023-01-19T17:12:40.244Z,96709.63
2023-01-19T17:17:41.446Z,96711.75
2023-01-19T17:22:42.695Z,96711.22
2023-01-19T17:27:44.142Z,96716.16
2023-01-19T17:32:45.386Z,96721.09
2023-01-19T17:37:46.622Z,96720.19
2023-01-19T17:42:47.957Z,96728.66
2023-01-19T17:47:50.084Z,96736.22
2023-01-19T17:52:51.384Z,96742.88
2023-01-19T17:57:52.633Z,96737.31
2023-01-19T18:02:53.933Z,96737.84
2023-01-19T18:07:55.238Z,96747.88
2023-01-19T18:12:56.733Z,96737.28
2023-01-19T18:17:57.985Z,96738.81
2023-01-19T18:22:59.247Z,96743.00
2023-01-19T18:28:00.562Z,96737.63
2023-01-19T18:33:01.790Z,96740.81
2023-01-19T18:38:03.057Z,96739.91
2023-01-19T18:43:04.267Z,96743.41
2023-01-19T18:48:05.505Z,96748.75
2023-01-19T18:53:06.713Z,96750.56
2023-01-19T18:58:08.758Z,96745.47
2023-01-19T19:03:10.360Z,96739.84
2023-01-19T19:08:11.640Z,96742.28
2023-01-19T19:13:12.873Z,96737.94
2023-01-19T19:18:15.051Z,96730.94
2023-01-19T19:23:16.406Z,96732.00
2023-01-19T19:28:19.197Z,96738.34
2023-01-19T19:33:21.632Z,96732.91
2023-01-19T19:38:23.406Z,96738.78
2023-01-19T19:43:24.741Z,96738.63
2023-01-19T19:48:25.982Z,96746.06
2023-01-19T19:53:27.226Z,96746.16
2023-01-19T19:58:28.495Z,96755.06
2023-01-19T20:03:30.415Z,96763.16
2023-01-19T20:08:31.693Z,96762.50
2023-01-19T20:13:33.639Z,96769.59
2023-01-19T20:18:34.924Z,96773.81
2023-01-19T20:23:36.152Z,96778.28
2023-01-19T20:28:37.404Z,96778.72
2023-01-19T20:33:38.724Z,96774.75
2023-01-19T20:38:40.004Z,96788.97
2023-01-19T20:43:41.275Z,96794.53
2023-01-19T20:48:42.532Z,96800.94
2023-01-19T20:53:43.769Z,96793.69
2023-01-19T20:58:44.967Z,96792.34
2023-01-19T21:03:46.210Z,96801.69
2023-01-19T21:08:49.529Z,96795.50
2023-01-19T21:13:55.320Z,96795.97
2023-01-19T21:18:56.536Z,96802.31
2023-01-19T21:23:57.829Z,96808.72
2023-01-19T21:28:59.181Z,96808.56
2023-01-19T21:34:00.548Z,96811.72
2023-01-19T21:39:01.923Z,96813.31
2023-01-19T21:44:03.242Z,96804.66
2023-01-19T21:49:04.524Z,96814.59
2023-01-19T21:54:05.907Z,96816.09
2023-01-19T21:59:07.502Z,96805.75
2023-01-19T22:04:09.197Z,96814.25
2023-01-19T22:09:10.491Z,96809.44
2023-01-19T22:14:11.766Z,96806.63
2023-01-19T22:19:17.420Z,96814.25
2023-01-19T22:24:18.658Z,96814.47
2023-01-19T22:29:19.933Z,96815.47
2023-01-19T22:34:21.179Z,96810.22
2023-01-19T22:39:22.450Z,96807.88
2023-01-19T22:44:23.798Z,96823.00
2023-01-19T22:49:25.143Z,96822.75
2023-01-19T22:54:26.531Z,96830.84
2023-01-19T22:59:27.804Z,96825.22
2023-01-19T23:04:29.177Z,96843.66
2023-01-19T23:09:30.491Z,96856.22
2023-01-19T23:14:31.971Z,96862.09
2023-01-19T23:19:33.210Z,96858.00
2023-01-19T23:24:34.409Z,96869.59
2023-01-19T23:29:36.256Z,96875.16
2023-01-19T23:34:37.545Z,96882.19
2023-01-19T23:39:38.786Z,96881.88
2023-01-19T23:44:40.025Z,96885.16
2023-01-19T23:49:42.104Z,96892.19
2023-01-19T23:54:44.791Z,96889.47
2023-01-19T23:59:46.034Z,96881.59
